sensor_id;sensor_type;location;lat;lon;timestamp;P1;durP1;ratioP1;P2;durP2;ratioP2
62153;SDS011;48140;45.486;9.226;2023-04-01T00:00:25;4.20;;;3.00;;
62153;SDS011;48140;45.486;9.226;2023-04-01T00:02:50;6.20;;;3.40;;
62153;SDS011;48140;45.486;9.226;2023-04-01T00:05:16;7.20;;;3.20;;
62153;SDS011;48140;45.486;9.226;2023-04-01T00:07:42;5.35;;;3.40;;
62153;SDS011;48140;45.486;9.226;2023-04-01T00:10:08;7.68;;;3.90;;
62153;SDS011;48140;45.486;9.226;2023-04-01T00:12:36;7.57;;;3.67;;
62153;SDS011;48140;45.486;9.226;2023-04-01T00:15:03;5.85;;;3.53;;
62153;SDS011;48140;45.486;9.226;2023-04-01T00:17:30;9.07;;;3.88;;
62153;SDS011;48140;45.486;9.226;2023-04-01T00:19:56;7.00;;;3.85;;
62153;SDS011;48140;45.486;9.226;2023-04-01T00:22:22;6.07;;;3.22;;
62153;SDS011;48140;45.486;9.226;2023-04-01T00:24:48;5.47;;;3.60;;
62153;SDS011;48140;45.486;9.226;2023-04-01T00:27:14;6.63;;;3.88;;
62153;SDS011;48140;45.486;9.226;2023-04-01T00:29:44;5.18;;;3.28;;
62153;SDS011;48140;45.486;9.226;2023-04-01T00:32:11;5.25;;;3.28;;
62153;SDS011;48140;45.486;9.226;2023-04-01T00:34:37;5.60;;;3.15;;
62153;SDS011;48140;45.486;9.226;2023-04-01T00:37:04;6.78;;;3.40;;
62153;SDS011;48140;45.486;9.226;2023-04-01T00:39:31;4.97;;;3.00;;
62153;SDS011;48140;45.486;9.226;2023-04-01T00:41:58;8.52;;;3.00;;
62153;SDS011;48140;45.486;9.226;2023-04-01T00:44:25;7.28;;;3.08;;
62153;SDS011;48140;45.486;9.226;2023-04-01T00:46:56;5.45;;;2.97;;
62153;SDS011;48140;45.486;9.226;2023-04-01T00:49:23;5.43;;;3.13;;
62153;SDS011;48140;45.486;9.226;2023-04-01T00:51:54;7.70;;;3.42;;
62153;SDS011;48140;45.486;9.226;2023-04-01T00:54:22;8.65;;;3.35;;
62153;SDS011;48140;45.486;9.226;2023-04-01T00:57:00;6.20;;;3.40;;
62153;SDS011;48140;45.486;9.226;2023-04-01T00:59:32;5.38;;;3.00;;
62153;SDS011;48140;45.486;9.226;2023-04-01T01:02:03;6.95;;;3.20;;
62153;SDS011;48140;45.486;9.226;2023-04-01T01:04:34;6.45;;;3.85;;
62153;SDS011;48140;45.486;9.226;2023-04-01T01:12:40;6.32;;;3.88;;
62153;SDS011;48140;45.486;9.226;2023-04-01T01:26:23;6.07;;;3.13;;
62153;SDS011;48140;45.486;9.226;2023-04-01T01:37:53;5.22;;;2.95;;
62153;SDS011;48140;45.486;9.226;2023-04-01T01:40:23;5.43;;;3.10;;
62153;SDS011;48140;45.486;9.226;2023-04-01T01:42:52;4.20;;;2.78;;
62153;SDS011;48140;45.486;9.226;2023-04-01T01:45:21;5.30;;;3.40;;
62153;SDS011;48140;45.486;9.226;2023-04-01T01:47:49;8.75;;;4.00;;
62153;SDS011;48140;45.486;9.226;2023-04-01T01:50:16;5.38;;;3.05;;
62153;SDS011;48140;45.486;9.226;2023-04-01T01:52:43;5.90;;;3.05;;
62153;SDS011;48140;45.486;9.226;2023-04-01T01:58:19;5.97;;;3.50;;
62153;SDS011;48140;45.486;9.226;2023-04-01T02:00:51;4.72;;;3.00;;
62153;SDS011;48140;45.486;9.226;2023-04-01T02:03:21;5.32;;;3.45;;
62153;SDS011;48140;45.486;9.226;2023-04-01T02:05:49;5.43;;;3.47;;
62153;SDS011;48140;45.486;9.226;2023-04-01T02:08:20;6.32;;;3.42;;
62153;SDS011;48140;45.486;9.226;2023-04-01T02:10:58;5.65;;;3.42;;
62153;SDS011;48140;45.486;9.226;2023-04-01T02:13:31;5.10;;;3.60;;
62153;SDS011;48140;45.486;9.226;2023-04-01T02:16:08;5.32;;;3.10;;
62153;SDS011;48140;45.486;9.226;2023-04-01T02:21:05;5.72;;;3.20;;
62153;SDS011;48140;45.486;9.226;2023-04-01T02:23:33;5.35;;;3.20;;
62153;SDS011;48140;45.486;9.226;2023-04-01T02:26:00;4.47;;;2.85;;
62153;SDS011;48140;45.486;9.226;2023-04-01T02:28:29;5.40;;;3.10;;
62153;SDS011;48140;45.486;9.226;2023-04-01T02:30:56;6.22;;;3.35;;
62153;SDS011;48140;45.486;9.226;2023-04-01T02:33:25;5.10;;;3.45;;
62153;SDS011;48140;45.486;9.226;2023-04-01T02:35:52;4.65;;;2.85;;
62153;SDS011;48140;45.486;9.226;2023-04-01T02:38:18;6.15;;;3.17;;
62153;SDS011;48140;45.486;9.226;2023-04-01T02:40:46;4.72;;;3.10;;
62153;SDS011;48140;45.486;9.226;2023-04-01T02:43:14;5.43;;;3.17;;
62153;SDS011;48140;45.486;9.226;2023-04-01T02:45:41;4.78;;;2.90;;
62153;SDS011;48140;45.486;9.226;2023-04-01T02:48:07;4.43;;;2.70;;
62153;SDS011;48140;45.486;9.226;2023-04-01T02:50:33;5.93;;;2.95;;
62153;SDS011;48140;45.486;9.226;2023-04-01T02:52:59;4.85;;;3.17;;
62153;SDS011;48140;45.486;9.226;2023-04-01T02:55:25;4.88;;;2.95;;
62153;SDS011;48140;45.486;9.226;2023-04-01T02:57:51;5.38;;;3.17;;
62153;SDS011;48140;45.486;9.226;2023-04-01T03:00:17;5.55;;;3.28;;
62153;SDS011;48140;45.486;9.226;2023-04-01T03:02:42;5.53;;;3.47;;
62153;SDS011;48140;45.486;9.226;2023-04-01T03:05:09;6.05;;;3.03;;
62153;SDS011;48140;45.486;9.226;2023-04-01T03:07:35;4.63;;;2.78;;
62153;SDS011;48140;45.486;9.226;2023-04-01T03:10:00;5.03;;;2.83;;
62153;SDS011;48140;45.486;9.226;2023-04-01T03:12:26;5.07;;;2.95;;
62153;SDS011;48140;45.486;9.226;2023-04-01T03:14:52;4.30;;;2.70;;
62153;SDS011;48140;45.486;9.226;2023-04-01T03:17:17;5.03;;;3.03;;
62153;SDS011;48140;45.486;9.226;2023-04-01T03:19:43;5.03;;;2.90;;
62153;SDS011;48140;45.486;9.226;2023-04-01T03:22:10;5.32;;;2.95;;
62153;SDS011;48140;45.486;9.226;2023-04-01T03:24:36;7.13;;;3.05;;
62153;SDS011;48140;45.486;9.226;2023-04-01T03:27:02;4.65;;;2.80;;
62153;SDS011;48140;45.486;9.226;2023-04-01T03:29:27;4.88;;;3.00;;
62153;SDS011;48140;45.486;9.226;2023-04-01T03:31:53;4.38;;;2.80;;
62153;SDS011;48140;45.486;9.226;2023-04-01T03:34:18;4.32;;;2.63;;
62153;SDS011;48140;45.486;9.226;2023-04-01T03:36:44;4.25;;;2.60;;
62153;SDS011;48140;45.486;9.226;2023-04-01T03:39:10;4.70;;;2.75;;
62153;SDS011;48140;45.486;9.226;2023-04-01T03:41:36;4.80;;;2.67;;
62153;SDS011;48140;45.486;9.226;2023-04-01T03:44:03;3.78;;;2.50;;
62153;SDS011;48140;45.486;9.226;2023-04-01T03:46:28;5.10;;;3.17;;
62153;SDS011;48140;45.486;9.226;2023-04-01T03:48:54;4.55;;;2.55;;
62153;SDS011;48140;45.486;9.226;2023-04-01T03:51:20;4.00;;;2.70;;
62153;SDS011;48140;45.486;9.226;2023-04-01T03:53:45;6.93;;;2.50;;
62153;SDS011;48140;45.486;9.226;2023-04-01T03:56:11;4.30;;;2.53;;
62153;SDS011;48140;45.486;9.226;2023-04-01T03:58:37;4.60;;;2.70;;
62153;SDS011;48140;45.486;9.226;2023-04-01T04:01:12;2.83;;;1.92;;
62153;SDS011;48140;45.486;9.226;2023-04-01T04:03:39;4.97;;;2.25;;
62153;SDS011;48140;45.486;9.226;2023-04-01T04:06:05;4.10;;;2.55;;
62153;SDS011;48140;45.486;9.226;2023-04-01T04:08:30;5.05;;;2.45;;
62153;SDS011;48140;45.486;9.226;2023-04-01T04:10:56;3.03;;;2.25;;
62153;SDS011;48140;45.486;9.226;2023-04-01T04:13:22;4.80;;;2.20;;
62153;SDS011;48140;45.486;9.226;2023-04-01T04:15:47;4.00;;;2.13;;
62153;SDS011;48140;45.486;9.226;2023-04-01T04:18:13;3.85;;;2.35;;
62153;SDS011;48140;45.486;9.226;2023-04-01T04:20:43;5.53;;;2.63;;
62153;SDS011;48140;45.486;9.226;2023-04-01T04:23:13;3.33;;;2.05;;
62153;SDS011;48140;45.486;9.226;2023-04-01T04:25:39;3.53;;;2.28;;
62153;SDS011;48140;45.486;9.226;2023-04-01T04:28:04;3.55;;;2.22;;
62153;SDS011;48140;45.486;9.226;2023-04-01T04:30:30;3.47;;;2.22;;
62153;SDS011;48140;45.486;9.226;2023-04-01T04:32:55;4.18;;;2.10;;
62153;SDS011;48140;45.486;9.226;2023-04-01T04:35:21;3.30;;;2.08;;
62153;SDS011;48140;45.486;9.226;2023-04-01T04:37:46;3.63;;;2.10;;
62153;SDS011;48140;45.486;9.226;2023-04-01T04:40:12;3.50;;;2.20;;
62153;SDS011;48140;45.486;9.226;2023-04-01T04:42:38;4.05;;;2.30;;
62153;SDS011;48140;45.486;9.226;2023-04-01T04:45:03;4.85;;;2.28;;
62153;SDS011;48140;45.486;9.226;2023-04-01T04:47:29;3.63;;;2.10;;
62153;SDS011;48140;45.486;9.226;2023-04-01T04:49:56;2.80;;;1.88;;
62153;SDS011;48140;45.486;9.226;2023-04-01T04:52:22;5.43;;;2.00;;
62153;SDS011;48140;45.486;9.226;2023-04-01T04:54:48;2.35;;;1.90;;
62153;SDS011;48140;45.486;9.226;2023-04-01T04:57:14;4.28;;;2.03;;
62153;SDS011;48140;45.486;9.226;2023-04-01T04:59:39;3.25;;;2.00;;
62153;SDS011;48140;45.486;9.226;2023-04-01T05:02:05;3.90;;;2.00;;
62153;SDS011;48140;45.486;9.226;2023-04-01T05:04:34;2.92;;;1.77;;
62153;SDS011;48140;45.486;9.226;2023-04-01T05:07:01;4.75;;;2.25;;
62153;SDS011;48140;45.486;9.226;2023-04-01T05:09:26;3.83;;;2.00;;
62153;SDS011;48140;45.486;9.226;2023-04-01T05:11:52;5.28;;;2.10;;
62153;SDS011;48140;45.486;9.226;2023-04-01T05:14:17;3.28;;;2.05;;
62153;SDS011;48140;45.486;9.226;2023-04-01T05:16:43;4.10;;;1.90;;
62153;SDS011;48140;45.486;9.226;2023-04-01T05:19:09;4.78;;;2.00;;
62153;SDS011;48140;45.486;9.226;2023-04-01T05:21:35;3.20;;;2.10;;
62153;SDS011;48140;45.486;9.226;2023-04-01T05:24:00;3.80;;;1.90;;
62153;SDS011;48140;45.486;9.226;2023-04-01T05:26:26;3.22;;;2.05;;
62153;SDS011;48140;45.486;9.226;2023-04-01T05:28:51;3.13;;;2.10;;
62153;SDS011;48140;45.486;9.226;2023-04-01T05:31:17;5.00;;;2.30;;
62153;SDS011;48140;45.486;9.226;2023-04-01T05:33:43;2.80;;;2.00;;
62153;SDS011;48140;45.486;9.226;2023-04-01T05:36:10;4.60;;;1.98;;
62153;SDS011;48140;45.486;9.226;2023-04-01T05:38:40;5.78;;;2.20;;
62153;SDS011;48140;45.486;9.226;2023-04-01T05:41:07;3.40;;;1.90;;
62153;SDS011;48140;45.486;9.226;2023-04-01T05:43:35;4.97;;;2.00;;
62153;SDS011;48140;45.486;9.226;2023-04-01T05:46:01;2.67;;;1.70;;
62153;SDS011;48140;45.486;9.226;2023-04-01T05:48:27;4.35;;;2.40;;
62153;SDS011;48140;45.486;9.226;2023-04-01T05:50:52;5.20;;;1.80;;
62153;SDS011;48140;45.486;9.226;2023-04-01T05:53:18;3.38;;;1.98;;
62153;SDS011;48140;45.486;9.226;2023-04-01T05:55:44;3.97;;;2.00;;
62153;SDS011;48140;45.486;9.226;2023-04-01T05:58:10;5.25;;;2.25;;
62153;SDS011;48140;45.486;9.226;2023-04-01T06:00:35;3.67;;;1.90;;
62153;SDS011;48140;45.486;9.226;2023-04-01T06:03:01;5.15;;;2.17;;
62153;SDS011;48140;45.486;9.226;2023-04-01T06:05:28;3.55;;;2.08;;
62153;SDS011;48140;45.486;9.226;2023-04-01T06:07:57;3.38;;;1.95;;
62153;SDS011;48140;45.486;9.226;2023-04-01T06:10:36;2.75;;;1.65;;
62153;SDS011;48140;45.486;9.226;2023-04-01T06:13:21;2.75;;;1.83;;
62153;SDS011;48140;45.486;9.226;2023-04-01T06:33:02;2.85;;;1.85;;
62153;SDS011;48140;45.486;9.226;2023-04-01T06:38:40;3.90;;;2.10;;
62153;SDS011;48140;45.486;9.226;2023-04-01T06:41:26;2.30;;;1.65;;
62153;SDS011;48140;45.486;9.226;2023-04-01T06:44:12;4.47;;;2.47;;
62153;SDS011;48140;45.486;9.226;2023-04-01T06:46:52;2.67;;;1.63;;
62153;SDS011;48140;45.486;9.226;2023-04-01T06:52:11;4.07;;;2.10;;
62153;SDS011;48140;45.486;9.226;2023-04-01T06:54:44;3.33;;;2.22;;
62153;SDS011;48140;45.486;9.226;2023-04-01T06:57:26;4.65;;;1.88;;
62153;SDS011;48140;45.486;9.226;2023-04-01T06:59:59;4.32;;;2.30;;
62153;SDS011;48140;45.486;9.226;2023-04-01T07:02:36;3.00;;;2.15;;
62153;SDS011;48140;45.486;9.226;2023-04-01T07:05:07;3.47;;;2.20;;
62153;SDS011;48140;45.486;9.226;2023-04-01T07:07:41;3.92;;;1.80;;
62153;SDS011;48140;45.486;9.226;2023-04-01T07:10:15;5.00;;;2.15;;
62153;SDS011;48140;45.486;9.226;2023-04-01T07:12:51;16.45;;;2.05;;
62153;SDS011;48140;45.486;9.226;2023-04-01T07:15:27;3.00;;;1.65;;
62153;SDS011;48140;45.486;9.226;2023-04-01T07:18:06;3.80;;;1.92;;
62153;SDS011;48140;45.486;9.226;2023-04-01T07:20:39;5.60;;;1.83;;
62153;SDS011;48140;45.486;9.226;2023-04-01T07:23:15;2.85;;;1.70;;
62153;SDS011;48140;45.486;9.226;2023-04-01T07:25:48;3.20;;;1.70;;
62153;SDS011;48140;45.486;9.226;2023-04-01T07:28:23;6.70;;;1.75;;
62153;SDS011;48140;45.486;9.226;2023-04-01T07:30:54;2.00;;;1.40;;
62153;SDS011;48140;45.486;9.226;2023-04-01T07:36:31;3.80;;;1.80;;
62153;SDS011;48140;45.486;9.226;2023-04-01T07:39:06;5.30;;;2.17;;
62153;SDS011;48140;45.486;9.226;2023-04-01T07:41:40;2.72;;;1.80;;
62153;SDS011;48140;45.486;9.226;2023-04-01T07:50:01;2.83;;;1.58;;
62153;SDS011;48140;45.486;9.226;2023-04-01T07:52:42;9.82;;;2.40;;
62153;SDS011;48140;45.486;9.226;2023-04-01T07:55:14;3.00;;;1.73;;
62153;SDS011;48140;45.486;9.226;2023-04-01T08:00:27;2.53;;;1.70;;
62153;SDS011;48140;45.486;9.226;2023-04-01T08:03:15;2.97;;;2.00;;
62153;SDS011;48140;45.486;9.226;2023-04-01T08:05:55;2.90;;;1.55;;
62153;SDS011;48140;45.486;9.226;2023-04-01T08:08:34;3.40;;;1.50;;
62153;SDS011;48140;45.486;9.226;2023-04-01T08:11:31;3.60;;;1.67;;
62153;SDS011;48140;45.486;9.226;2023-04-01T08:14:07;1.55;;;1.02;;
62153;SDS011;48140;45.486;9.226;2023-04-01T08:22:12;2.50;;;1.48;;
62153;SDS011;48140;45.486;9.226;2023-04-01T08:24:45;4.40;;;1.50;;
62153;SDS011;48140;45.486;9.226;2023-04-01T08:27:24;2.47;;;1.48;;
62153;SDS011;48140;45.486;9.226;2023-04-01T08:30:20;4.20;;;1.70;;
62153;SDS011;48140;45.486;9.226;2023-04-01T08:32:59;3.85;;;1.83;;
62153;SDS011;48140;45.486;9.226;2023-04-01T08:38:19;2.83;;;1.52;;
62153;SDS011;48140;45.486;9.226;2023-04-01T08:40:55;2.72;;;1.30;;
62153;SDS011;48140;45.486;9.226;2023-04-01T08:54:44;1.95;;;1.25;;
62153;SDS011;48140;45.486;9.226;2023-04-01T09:00:44;4.03;;;1.60;;
62153;SDS011;48140;45.486;9.226;2023-04-01T09:06:21;2.63;;;1.20;;
62153;SDS011;48140;45.486;9.226;2023-04-01T09:19:51;3.83;;;1.90;;
62153;SDS011;48140;45.486;9.226;2023-04-01T09:36:13;3.50;;;1.85;;
62153;SDS011;48140;45.486;9.226;2023-04-01T09:39:16;3.15;;;1.95;;
62153;SDS011;48140;45.486;9.226;2023-04-01T09:42:15;3.78;;;1.67;;
62153;SDS011;48140;45.486;9.226;2023-04-01T10:04:40;3.42;;;1.70;;
62153;SDS011;48140;45.486;9.226;2023-04-01T10:07:42;2.20;;;1.30;;
62153;SDS011;48140;45.486;9.226;2023-04-01T10:13:28;2.13;;;1.30;;
62153;SDS011;48140;45.486;9.226;2023-04-01T10:21:47;2.92;;;1.80;;
62153;SDS011;48140;45.486;9.226;2023-04-01T10:24:32;2.50;;;1.90;;
62153;SDS011;48140;45.486;9.226;2023-04-01T10:42:06;3.30;;;1.42;;
62153;SDS011;48140;45.486;9.226;2023-04-01T10:45:01;3.55;;;1.40;;
62153;SDS011;48140;45.486;9.226;2023-04-01T10:53:33;3.10;;;1.40;;
62153;SDS011;48140;45.486;9.226;2023-04-01T10:56:41;2.65;;;1.27;;
62153;SDS011;48140;45.486;9.226;2023-04-01T11:25:02;1.05;;;0.80;;
62153;SDS011;48140;45.486;9.226;2023-04-01T11:36:43;2.35;;;0.90;;
62153;SDS011;48140;45.486;9.226;2023-04-01T11:39:20;3.50;;;0.70;;
62153;SDS011;48140;45.486;9.226;2023-04-01T11:41:58;0.80;;;0.80;;
62153;SDS011;48140;45.486;9.226;2023-04-01T11:44:52;3.53;;;0.88;;
62153;SDS011;48140;45.486;9.226;2023-04-01T11:50:32;7.03;;;3.78;;
62153;SDS011;48140;45.486;9.226;2023-04-01T11:58:54;0.93;;;0.63;;
62153;SDS011;48140;45.486;9.226;2023-04-01T12:19:03;2.58;;;0.57;;
62153;SDS011;48140;45.486;9.226;2023-04-01T12:30:06;0.30;;;0.30;;
62153;SDS011;48140;45.486;9.226;2023-04-01T12:42:04;0.45;;;0.43;;
62153;SDS011;48140;45.486;9.226;2023-04-01T12:55:40;1.15;;;0.55;;
62153;SDS011;48140;45.486;9.226;2023-04-01T12:58:31;0.40;;;0.40;;
62153;SDS011;48140;45.486;9.226;2023-04-01T13:10:26;0.88;;;0.40;;
62153;SDS011;48140;45.486;9.226;2023-04-01T13:16:07;1.15;;;0.50;;
62153;SDS011;48140;45.486;9.226;2023-04-01T13:19:01;2.25;;;0.40;;
62153;SDS011;48140;45.486;9.226;2023-04-01T13:24:30;0.55;;;0.40;;
62153;SDS011;48140;45.486;9.226;2023-04-01T13:29:37;1.13;;;0.30;;
62153;SDS011;48140;45.486;9.226;2023-04-01T13:34:59;0.75;;;0.32;;
62153;SDS011;48140;45.486;9.226;2023-04-01T13:37:42;0.70;;;0.40;;
62153;SDS011;48140;45.486;9.226;2023-04-01T13:40:33;0.20;;;0.20;;
62153;SDS011;48140;45.486;9.226;2023-04-01T13:54:12;0.20;;;0.20;;
62153;SDS011;48140;45.486;9.226;2023-04-01T13:59:55;0.95;;;0.50;;
62153;SDS011;48140;45.486;9.226;2023-04-01T14:03:11;0.32;;;0.30;;
62153;SDS011;48140;45.486;9.226;2023-04-01T14:08:48;0.32;;;0.30;;
62153;SDS011;48140;45.486;9.226;2023-04-01T14:11:13;0.73;;;0.30;;
62153;SDS011;48140;45.486;9.226;2023-04-01T14:13:53;1.17;;;0.35;;
62153;SDS011;48140;45.486;9.226;2023-04-01T14:19:55;0.45;;;0.30;;
62153;SDS011;48140;45.486;9.226;2023-04-01T14:28:38;1.17;;;0.20;;
62153;SDS011;48140;45.486;9.226;2023-04-01T14:31:34;1.40;;;0.70;;
62153;SDS011;48140;45.486;9.226;2023-04-01T14:39:46;0.75;;;0.40;;
62153;SDS011;48140;45.486;9.226;2023-04-01T14:50:53;0.25;;;0.20;;
62153;SDS011;48140;45.486;9.226;2023-04-01T14:55:54;0.17;;;0.17;;
62153;SDS011;48140;45.486;9.226;2023-04-01T14:58:22;0.20;;;0.20;;
62153;SDS011;48140;45.486;9.226;2023-04-01T15:09:10;0.60;;;0.30;;
62153;SDS011;48140;45.486;9.226;2023-04-01T15:11:43;0.82;;;0.30;;
62153;SDS011;48140;45.486;9.226;2023-04-01T15:23:01;2.28;;;0.60;;
62153;SDS011;48140;45.486;9.226;2023-04-01T15:28:43;1.42;;;0.45;;
62153;SDS011;48140;45.486;9.226;2023-04-01T15:31:47;0.57;;;0.40;;
62153;SDS011;48140;45.486;9.226;2023-04-01T15:34:28;0.30;;;0.30;;
62153;SDS011;48140;45.486;9.226;2023-04-01T15:47:35;0.65;;;0.40;;
62153;SDS011;48140;45.486;9.226;2023-04-01T15:50:34;1.15;;;0.60;;
62153;SDS011;48140;45.486;9.226;2023-04-01T15:53:16;0.55;;;0.20;;
62153;SDS011;48140;45.486;9.226;2023-04-01T16:10:09;0.35;;;0.30;;
62153;SDS011;48140;45.486;9.226;2023-04-01T16:13:00;0.88;;;0.63;;
62153;SDS011;48140;45.486;9.226;2023-04-01T16:15:51;3.67;;;0.68;;
62153;SDS011;48140;45.486;9.226;2023-04-01T16:27:18;1.00;;;0.47;;
62153;SDS011;48140;45.486;9.226;2023-04-01T16:30:26;0.30;;;0.30;;
62153;SDS011;48140;45.486;9.226;2023-04-01T16:35:48;0.25;;;0.20;;
62153;SDS011;48140;45.486;9.226;2023-04-01T16:38:35;0.30;;;0.28;;
62153;SDS011;48140;45.486;9.226;2023-04-01T16:41:19;2.28;;;0.93;;
62153;SDS011;48140;45.486;9.226;2023-04-01T16:43:57;0.73;;;0.57;;
62153;SDS011;48140;45.486;9.226;2023-04-01T16:46:39;1.75;;;0.30;;
62153;SDS011;48140;45.486;9.226;2023-04-01T16:51:52;1.73;;;0.32;;
62153;SDS011;48140;45.486;9.226;2023-04-01T16:54:39;0.50;;;0.50;;
62153;SDS011;48140;45.486;9.226;2023-04-01T16:57:21;1.58;;;0.95;;
62153;SDS011;48140;45.486;9.226;2023-04-01T16:59:54;1.00;;;0.45;;
62153;SDS011;48140;45.486;9.226;2023-04-01T17:02:23;1.90;;;0.60;;
62153;SDS011;48140;45.486;9.226;2023-04-01T17:05:05;0.80;;;0.52;;
62153;SDS011;48140;45.486;9.226;2023-04-01T17:07:46;1.70;;;0.75;;
62153;SDS011;48140;45.486;9.226;2023-04-01T17:10:37;0.70;;;0.63;;
62153;SDS011;48140;45.486;9.226;2023-04-01T17:30:17;1.35;;;0.85;;
62153;SDS011;48140;45.486;9.226;2023-04-01T17:35:40;2.17;;;0.47;;
62153;SDS011;48140;45.486;9.226;2023-04-01T17:38:54;0.95;;;0.50;;
62153;SDS011;48140;45.486;9.226;2023-04-01T17:44:20;0.98;;;0.70;;
62153;SDS011;48140;45.486;9.226;2023-04-01T17:52:35;2.22;;;0.90;;
62153;SDS011;48140;45.486;9.226;2023-04-01T17:57:50;3.05;;;1.05;;
62153;SDS011;48140;45.486;9.226;2023-04-01T18:06:19;2.78;;;1.40;;
62153;SDS011;48140;45.486;9.226;2023-04-01T18:09:33;2.80;;;1.30;;
62153;SDS011;48140;45.486;9.226;2023-04-01T18:14:21;2.50;;;1.40;;
62153;SDS011;48140;45.486;9.226;2023-04-01T18:17:21;2.47;;;1.00;;
62153;SDS011;48140;45.486;9.226;2023-04-01T18:22:53;3.10;;;1.63;;
62153;SDS011;48140;45.486;9.226;2023-04-01T18:25:41;2.95;;;1.40;;
62153;SDS011;48140;45.486;9.226;2023-04-01T18:28:25;2.15;;;1.25;;
62153;SDS011;48140;45.486;9.226;2023-04-01T18:36:18;4.03;;;2.13;;
62153;SDS011;48140;45.486;9.226;2023-04-01T18:38:53;2.35;;;1.63;;
62153;SDS011;48140;45.486;9.226;2023-04-01T18:44:55;3.42;;;1.80;;
62153;SDS011;48140;45.486;9.226;2023-04-01T18:47:47;2.97;;;1.70;;
62153;SDS011;48140;45.486;9.226;2023-04-01T18:56:03;3.83;;;1.58;;
62153;SDS011;48140;45.486;9.226;2023-04-01T19:01:03;3.13;;;1.52;;
62153;SDS011;48140;45.486;9.226;2023-04-01T19:03:55;3.88;;;2.00;;
62153;SDS011;48140;45.486;9.226;2023-04-01T19:06:35;3.00;;;1.65;;
62153;SDS011;48140;45.486;9.226;2023-04-01T19:17:26;5.30;;;2.38;;
62153;SDS011;48140;45.486;9.226;2023-04-01T19:20:18;5.15;;;2.60;;
62153;SDS011;48140;45.486;9.226;2023-04-01T19:23:11;8.52;;;2.85;;
62153;SDS011;48140;45.486;9.226;2023-04-01T19:26:13;5.93;;;2.95;;
62153;SDS011;48140;45.486;9.226;2023-04-01T19:32:08;5.13;;;2.58;;
62153;SDS011;48140;45.486;9.226;2023-04-01T19:37:03;8.77;;;2.45;;
62153;SDS011;48140;45.486;9.226;2023-04-01T19:50:42;7.03;;;2.75;;
62153;SDS011;48140;45.486;9.226;2023-04-01T19:53:31;8.35;;;2.78;;
62153;SDS011;48140;45.486;9.226;2023-04-01T19:56:02;5.75;;;2.72;;
62153;SDS011;48140;45.486;9.226;2023-04-01T20:01:21;5.78;;;2.53;;
62153;SDS011;48140;45.486;9.226;2023-04-01T20:14:53;5.68;;;2.70;;
62153;SDS011;48140;45.486;9.226;2023-04-01T20:20:26;4.60;;;2.38;;
62153;SDS011;48140;45.486;9.226;2023-04-01T20:25:32;5.38;;;2.40;;
62153;SDS011;48140;45.486;9.226;2023-04-01T20:28:11;5.07;;;2.33;;
62153;SDS011;48140;45.486;9.226;2023-04-01T20:33:58;7.07;;;2.53;;
62153;SDS011;48140;45.486;9.226;2023-04-01T20:36:39;7.05;;;2.47;;
62153;SDS011;48140;45.486;9.226;2023-04-01T20:39:38;6.07;;;2.90;;
62153;SDS011;48140;45.486;9.226;2023-04-01T20:48:09;7.05;;;2.42;;
62153;SDS011;48140;45.486;9.226;2023-04-01T20:50:45;6.43;;;2.28;;
62153;SDS011;48140;45.486;9.226;2023-04-01T20:59:09;11.57;;;2.63;;
62153;SDS011;48140;45.486;9.226;2023-04-01T21:15:44;7.50;;;2.35;;
62153;SDS011;48140;45.486;9.226;2023-04-01T21:18:47;6.80;;;2.28;;
62153;SDS011;48140;45.486;9.226;2023-04-01T21:24:35;4.57;;;2.00;;
62153;SDS011;48140;45.486;9.226;2023-04-01T21:35:56;6.35;;;2.55;;
62153;SDS011;48140;45.486;9.226;2023-04-01T21:38:51;6.75;;;2.45;;
62153;SDS011;48140;45.486;9.226;2023-04-01T21:41:28;5.00;;;2.28;;
62153;SDS011;48140;45.486;9.226;2023-04-01T21:52:29;5.07;;;2.38;;
62153;SDS011;48140;45.486;9.226;2023-04-01T21:58:10;3.83;;;2.00;;
62153;SDS011;48140;45.486;9.226;2023-04-01T22:06:28;4.72;;;1.70;;
62153;SDS011;48140;45.486;9.226;2023-04-01T22:09:03;4.57;;;1.80;;
62153;SDS011;48140;45.486;9.226;2023-04-01T22:11:48;3.63;;;1.65;;
62153;SDS011;48140;45.486;9.226;2023-04-01T22:14:37;4.80;;;2.10;;
62153;SDS011;48140;45.486;9.226;2023-04-01T22:17:26;4.70;;;2.45;;
62153;SDS011;48140;45.486;9.226;2023-04-01T22:20:13;3.65;;;2.22;;
62153;SDS011;48140;45.486;9.226;2023-04-01T22:25:15;6.75;;;3.55;;
62153;SDS011;48140;45.486;9.226;2023-04-01T22:27:58;4.75;;;2.17;;
62153;SDS011;48140;45.486;9.226;2023-04-01T22:30:49;3.25;;;1.95;;
62153;SDS011;48140;45.486;9.226;2023-04-01T22:39:02;5.57;;;1.75;;
62153;SDS011;48140;45.486;9.226;2023-04-01T22:44:26;3.47;;;1.80;;
62153;SDS011;48140;45.486;9.226;2023-04-01T22:50:16;2.17;;;1.55;;
62153;SDS011;48140;45.486;9.226;2023-04-01T22:52:44;2.67;;;1.37;;
62153;SDS011;48140;45.486;9.226;2023-04-01T22:55:15;5.18;;;1.48;;
62153;SDS011;48140;45.486;9.226;2023-04-01T23:00:35;2.28;;;1.38;;
62153;SDS011;48140;45.486;9.226;2023-04-01T23:03:19;2.53;;;1.15;;
62153;SDS011;48140;45.486;9.226;2023-04-01T23:05:48;3.08;;;1.70;;
62153;SDS011;48140;45.486;9.226;2023-04-01T23:11:02;4.40;;;1.75;;
62153;SDS011;48140;45.486;9.226;2023-04-01T23:13:32;2.65;;;1.23;;
62153;SDS011;48140;45.486;9.226;2023-04-01T23:16:05;4.35;;;1.92;;
62153;SDS011;48140;45.486;9.226;2023-04-01T23:18:36;2.65;;;1.40;;
62153;SDS011;48140;45.486;9.226;2023-04-01T23:21:13;1.73;;;1.35;;
62153;SDS011;48140;45.486;9.226;2023-04-01T23:24:03;3.83;;;1.77;;
62153;SDS011;48140;45.486;9.226;2023-04-01T23:26:39;3.00;;;1.70;;
62153;SDS011;48140;45.486;9.226;2023-04-01T23:29:18;4.45;;;1.80;;
62153;SDS011;48140;45.486;9.226;2023-04-01T23:31:45;4.45;;;1.90;;
62153;SDS011;48140;45.486;9.226;2023-04-01T23:36:38;2.70;;;1.70;;
62153;SDS011;48140;45.486;9.226;2023-04-01T23:39:41;3.78;;;1.80;;
62153;SDS011;48140;45.486;9.226;2023-04-01T23:42:24;4.13;;;2.00;;
62153;SDS011;48140;45.486;9.226;2023-04-01T23:44:53;3.75;;;2.20;;
62153;SDS011;48140;45.486;9.226;2023-04-01T23:47:26;4.07;;;1.80;;
62153;SDS011;48140;45.486;9.226;2023-04-01T23:50:01;4.78;;;2.10;;
62153;SDS011;48140;45.486;9.226;2023-04-01T23:52:35;3.67;;;1.65;;
62153;SDS011;48140;45.486;9.226;2023-04-01T23:57:35;3.45;;;1.90;;
